Time;durP1;ratioP1;P1;durP2;ratioP2;P2;SDS_P1;SDS_P2;PMS_P1;PMS_P2;Temp;Humidity;BMP_temperature;BMP_pressure;BME280_temperature;BME280_humidity;BME280_pressure;Samples;Min_cycle;Max_cycle;Signal;HPM_P1;HPM_P2
2023/11/09 00:01:36;;;;;;;6.88;3.83;;;5.20;99.90;;;;;;5011999;28;20050;-44
2023/11/09 00:04:03;;;;;;;6.95;3.60;;;5.10;99.90;;;;;;5011346;28;20252;-43
2023/11/09 00:06:31;;;;;;;7.28;3.83;;;5.10;99.90;;;;;;5009909;28;20060;-39
2023/11/09 00:08:58;;;;;;;6.47;3.63;;;5.10;99.90;;;;;;5008594;28;20050;-42
2023/11/09 00:11:25;;;;;;;7.88;4.68;;;5.10;99.90;;;;;;5009292;28;20060;-42
2023/11/09 00:13:52;;;;;;;7.78;4.50;;;5.00;99.90;;;;;;5009184;28;20613;-43
2023/11/09 00:16:19;;;;;;;8.93;4.45;;;5.10;99.90;;;;;;5019866;28;20058;-42
2023/11/09 00:18:49;;;;;;;8.73;4.55;;;5.00;99.90;;;;;;5020793;28;20046;-40
2023/11/09 00:21:17;;;;;;;8.32;4.30;;;5.00;99.90;;;;;;5016809;28;20053;-45
2023/11/09 00:23:44;;;;;;;6.53;3.83;;;4.90;99.90;;;;;;5021235;28;20050;-43
2023/11/09 00:26:11;;;;;;;7.20;4.10;;;4.90;99.90;;;;;;5015757;28;20100;-44
2023/11/09 00:28:50;;;;;;;7.88;4.70;;;4.90;99.90;;;;;;5030843;28;20046;-40
2023/11/09 00:31:22;;;;;;;9.60;4.53;;;4.90;99.90;;;;;;5015387;28;20045;-41
2023/11/09 00:33:49;;;;;;;;;;;4.90;99.90;;;;;;5018609;28;20069;-42
2023/11/09 00:36:16;;;;;;;5.90;3.97;;;4.90;99.90;;;;;;5019971;28;20398;-41
2023/11/09 00:38:46;;;;;;;6.43;4.13;;;4.80;99.90;;;;;;5021717;28;20076;-41
2023/11/09 00:41:14;;;;;;;7.85;4.60;;;4.80;99.90;;;;;;5015965;28;20037;-43
2023/11/09 00:43:41;;;;;;;8.40;4.22;;;4.90;99.90;;;;;;5017785;28;20486;-44
2023/11/09 00:46:10;;;;;;;7.07;4.07;;;4.80;99.90;;;;;;5019323;28;20060;-41
2023/11/09 00:48:37;;;;;;;10.30;5.72;;;4.80;99.90;;;;;;5012936;28;20456;-44
2023/11/09 00:51:04;;;;;;;7.13;4.70;;;4.80;99.90;;;;;;5015866;28;20050;-44
2023/11/09 00:53:31;;;;;;;10.43;4.93;;;4.80;99.90;;;;;;5015575;28;20049;-44
2023/11/09 00:55:59;;;;;;;7.18;4.90;;;4.80;99.90;;;;;;5008302;28;20060;-40
2023/11/09 00:58:26;;;;;;;8.85;4.00;;;4.90;99.90;;;;;;5013550;28;20050;-42
2023/11/09 01:00:53;;;;;;;7.30;4.25;;;4.90;99.90;;;;;;5014772;28;20073;-42
2023/11/09 01:03:20;;;;;;;6.97;4.40;;;4.90;99.90;;;;;;5023157;28;20058;-41
2023/11/09 01:05:48;;;;;;;6.80;3.75;;;4.90;99.90;;;;;;5012122;28;20058;-45
2023/11/09 01:08:15;;;;;;;7.82;4.43;;;4.90;99.90;;;;;;5012616;28;20360;-41
2023/11/09 01:10:43;;;;;;;8.02;4.35;;;4.90;99.90;;;;;;5028133;28;20042;-43
2023/11/09 01:13:10;;;;;;;6.97;4.18;;;4.80;99.90;;;;;;5011865;28;20034;-43
2023/11/09 01:15:37;;;;;;;9.35;4.43;;;4.80;99.90;;;;;;4995098;28;20431;-42
2023/11/09 01:18:08;;;;;;;6.40;4.07;;;4.80;99.90;;;;;;5012019;28;20100;-40
2023/11/09 01:20:35;;;;;;;7.15;4.30;;;4.80;99.90;;;;;;5012027;28;20052;-44
2023/11/09 01:23:02;;;;;;;7.38;4.25;;;4.70;99.90;;;;;;5013879;28;20054;-42
2023/11/09 01:25:31;;;;;;;9.60;4.40;;;4.70;99.90;;;;;;5021676;28;20062;-42
2023/11/09 01:27:59;;;;;;;8.80;4.30;;;4.70;99.90;;;;;;5014333;28;20042;-40
2023/11/09 01:30:26;;;;;;;5.85;3.97;;;4.70;99.90;;;;;;5013280;28;20049;-42
2023/11/09 01:32:54;;;;;;;9.77;4.78;;;4.60;99.90;;;;;;5011918;28;20054;-44
2023/11/09 01:35:21;;;;;;;8.05;4.03;;;4.60;99.90;;;;;;5019826;28;20042;-41
2023/11/09 01:37:48;;;;;;;9.07;4.30;;;4.60;99.90;;;;;;5021203;28;20348;-44
2023/11/09 01:40:16;;;;;;;8.75;4.53;;;4.50;99.90;;;;;;5015844;28;20046;-40
2023/11/09 01:42:43;;;;;;;10.07;4.28;;;4.60;99.90;;;;;;5027095;28;20057;-41
2023/11/09 01:45:10;;;;;;;7.05;4.30;;;4.60;99.90;;;;;;5011823;28;20041;-44
2023/11/09 01:47:38;;;;;;;8.18;4.28;;;4.50;99.90;;;;;;5014409;28;20042;-40
2023/11/09 01:50:05;;;;;;;6.68;4.30;;;4.60;99.90;;;;;;5027579;28;20113;-41
2023/11/09 01:52:34;;;;;;;9.35;4.65;;;4.50;99.90;;;;;;5026774;28;20046;-43
2023/11/09 01:55:02;;;;;;;8.55;4.38;;;4.60;99.90;;;;;;5011897;28;20046;-45
2023/11/09 01:57:30;;;;;;;8.60;4.22;;;4.60;99.90;;;;;;5013506;28;20054;-43
2023/11/09 01:59:57;;;;;;;6.78;4.55;;;4.60;99.90;;;;;;5012036;28;20058;-47
2023/11/09 02:02:25;;;;;;;7.95;3.90;;;4.60;99.90;;;;;;5011448;28;20104;-41
2023/11/09 02:04:53;;;;;;;7.72;4.18;;;4.60;99.90;;;;;;5010939;28;20144;-43
2023/11/09 02:07:21;;;;;;;8.10;4.28;;;4.60;99.90;;;;;;5012154;28;20096;-42
2023/11/09 02:09:50;;;;;;;7.35;4.22;;;4.60;99.90;;;;;;5012123;28;20064;-40
2023/11/09 02:12:17;;;;;;;7.47;4.47;;;4.60;99.90;;;;;;5010736;28;20049;-44
2023/11/09 02:14:45;;;;;;;8.68;4.60;;;4.60;99.90;;;;;;5020518;28;20128;-41
2023/11/09 02:17:12;;;;;;;6.80;4.22;;;4.60;99.90;;;;;;5019464;28;20146;-46
2023/11/09 02:19:39;;;;;;;9.43;4.60;;;4.60;99.90;;;;;;5013010;28;20065;-41
2023/11/09 02:22:06;;;;;;;8.35;4.40;;;4.60;99.90;;;;;;5009983;28;20062;-44
2023/11/09 02:24:34;;;;;;;9.07;4.40;;;4.60;99.90;;;;;;5009995;28;20038;-45
2023/11/09 02:27:02;;;;;;;8.77;4.38;;;4.60;99.90;;;;;;5006944;28;20447;-41
2023/11/09 02:29:31;;;;;;;5.82;3.47;;;4.60;99.90;;;;;;5012019;28;20042;-44
2023/11/09 02:31:58;;;;;;;6.05;4.22;;;4.60;99.90;;;;;;5006870;28;20045;-42
2023/11/09 02:34:25;;;;;;;5.63;4.00;;;4.60;99.90;;;;;;5029969;28;20044;-44
2023/11/09 02:36:52;;;;;;;7.68;4.78;;;4.70;99.90;;;;;;5017387;28;20057;-43
2023/11/09 02:39:20;;;;;;;6.97;4.13;;;4.70;99.90;;;;;;5018607;28;20050;-42
2023/11/09 02:41:47;;;;;;;6.13;4.22;;;4.70;99.90;;;;;;5015418;28;20073;-41
2023/11/09 02:44:14;;;;;;;7.90;4.47;;;4.70;99.90;;;;;;5019526;28;20041;-43
2023/11/09 02:46:41;;;;;;;6.43;4.07;;;4.70;99.90;;;;;;5030242;28;20727;-44
2023/11/09 02:49:08;;;;;;;6.63;4.50;;;4.70;99.90;;;;;;5007989;28;20062;-45
2023/11/09 02:51:35;;;;;;;6.60;4.03;;;4.70;99.90;;;;;;5010149;28;20054;-41
2023/11/09 02:54:02;;;;;;;7.43;3.88;;;4.70;99.90;;;;;;5023733;28;20042;-42
2023/11/09 02:56:29;;;;;;;8.23;4.13;;;4.80;99.90;;;;;;5010523;28;20046;-41
2023/11/09 02:58:56;;;;;;;9.60;4.20;;;4.80;99.90;;;;;;5015678;28;20058;-43
2023/11/09 03:01:23;;;;;;;6.53;4.00;;;4.80;99.90;;;;;;5017718;28;20077;-41
2023/11/09 03:03:54;;;;;;;5.82;4.00;;;4.80;99.90;;;;;;4997115;28;20120;-42
2023/11/09 03:06:21;;;;;;;5.47;3.92;;;4.80;99.90;;;;;;5007756;28;20045;-44
2023/11/09 03:08:49;;;;;;;7.72;4.00;;;4.90;99.90;;;;;;5009100;28;20061;-42
2023/11/09 03:11:18;;;;;;;6.22;3.95;;;4.90;99.90;;;;;;5010318;28;20471;-40
2023/11/09 03:13:45;;;;;;;6.10;4.10;;;4.90;99.90;;;;;;5015810;28;20121;-41
2023/11/09 03:16:13;;;;;;;5.60;3.90;;;4.90;99.90;;;;;;5028413;28;20042;-41
2023/11/09 03:18:41;;;;;;;10.02;4.00;;;4.80;99.90;;;;;;5010222;28;20038;-41
2023/11/09 03:21:09;;;;;;;6.25;4.13;;;4.80;99.90;;;;;;5009264;28;20060;-42
2023/11/09 03:23:36;;;;;;;7.15;4.18;;;4.80;99.90;;;;;;5009558;28;20034;-44
2023/11/09 03:26:04;;;;;;;6.93;4.07;;;4.90;99.90;;;;;;5011056;28;20046;-42
2023/11/09 03:28:33;;;;;;;7.97;4.22;;;4.80;99.90;;;;;;5017323;28;20117;-42
2023/11/09 03:31:03;;;;;;;6.85;3.85;;;4.80;99.90;;;;;;5017690;28;20050;-40
2023/11/09 03:33:32;;;;;;;6.55;3.95;;;4.80;99.90;;;;;;5019785;28;20066;-44
2023/11/09 03:36:00;;;;;;;6.07;4.28;;;4.70;99.90;;;;;;5014677;28;20046;-42
2023/11/09 03:38:27;;;;;;;7.53;4.53;;;4.70;99.90;;;;;;5015381;28;20054;-40
2023/11/09 03:40:54;;;;;;;6.60;4.20;;;4.70;99.90;;;;;;5016749;28;20069;-41
2023/11/09 03:43:21;;;;;;;6.55;4.20;;;4.70;99.90;;;;;;5011508;28;20049;-41
2023/11/09 03:45:48;;;;;;;6.38;4.68;;;4.60;99.90;;;;;;5014348;28;20069;-41
2023/11/09 03:48:15;;;;;;;5.93;4.40;;;4.60;99.90;;;;;;5013797;28;20045;-43
2023/11/09 03:50:43;;;;;;;7.30;3.70;;;4.70;99.90;;;;;;5013769;28;20060;-45
2023/11/09 03:53:10;;;;;;;10.32;4.22;;;4.60;99.90;;;;;;5018485;28;20033;-42
2023/11/09 03:55:37;;;;;;;6.57;3.92;;;4.60;99.90;;;;;;5019812;28;20046;-41
2023/11/09 03:58:04;;;;;;;7.82;4.10;;;4.60;99.90;;;;;;5019149;28;20050;-41
2023/11/09 04:00:31;;;;;;;5.47;3.90;;;4.70;99.90;;;;;;5020763;28;20034;-43
2023/11/09 04:02:58;;;;;;;8.32;4.25;;;4.70;99.90;;;;;;5016782;28;20054;-42
2023/11/09 04:05:26;;;;;;;7.95;4.25;;;4.60;99.90;;;;;;5016121;28;20444;-39
2023/11/09 04:07:53;;;;;;;6.20;4.60;;;4.60;99.90;;;;;;5016838;28;20110;-43
2023/11/09 04:10:20;;;;;;;6.40;4.13;;;4.60;99.90;;;;;;5015594;28;20053;-44
2023/11/09 04:12:47;;;;;;;7.20;4.15;;;4.50;99.90;;;;;;5013122;28;20037;-41
2023/11/09 04:15:14;;;;;;;4.95;3.83;;;4.50;99.90;;;;;;5013188;28;20057;-41
2023/11/09 04:17:42;;;;;;;6.90;4.10;;;4.50;99.90;;;;;;5013966;28;20142;-44
2023/11/09 04:20:09;;;;;;;7.22;4.70;;;4.40;99.90;;;;;;5014038;28;20042;-45
2023/11/09 04:22:36;;;;;;;6.43;3.90;;;4.40;99.90;;;;;;5013138;28;20085;-40
2023/11/09 04:25:04;;;;;;;8.60;4.60;;;4.40;99.90;;;;;;5006641;28;20060;-42
2023/11/09 04:27:34;;;;;;;8.23;4.43;;;4.40;99.90;;;;;;5016275;28;20045;-42
2023/11/09 04:30:01;;;;;;;6.25;4.00;;;4.40;99.90;;;;;;5014616;28;20511;-43
2023/11/09 04:32:29;;;;;;;7.22;4.15;;;4.40;99.90;;;;;;5008935;28;20041;-42
2023/11/09 04:34:57;;;;;;;8.25;4.18;;;4.40;99.90;;;;;;5010017;28;20681;-42
2023/11/09 04:37:25;;;;;;;7.88;4.43;;;4.40;99.90;;;;;;5012467;28;20522;-42
2023/11/09 04:39:58;;;;;;;8.70;4.63;;;4.50;99.90;;;;;;5011024;28;20530;-42
2023/11/09 04:42:29;;;;;;;7.22;4.60;;;4.50;99.90;;;;;;5014515;28;20049;-43
2023/11/09 04:45:00;;;;;;;7.03;5.07;;;4.50;99.90;;;;;;5017529;28;20037;-41
2023/11/09 04:47:29;;;;;;;7.45;4.25;;;4.50;99.90;;;;;;5016651;28;20450;-42
2023/11/09 04:50:01;;;;;;;8.77;4.47;;;4.50;99.90;;;;;;5013491;28;20073;-45
2023/11/09 04:52:30;;;;;;;7.30;4.40;;;4.50;99.90;;;;;;5013310;28;20475;-43
2023/11/09 04:55:10;;;;;;;6.78;4.28;;;4.60;99.90;;;;;;5013422;28;20046;-43
2023/11/09 05:08:43;;;;;;;7.20;4.28;;;4.60;99.90;;;;;;5010455;28;20038;-44
2023/11/09 05:11:13;;;;;;;10.85;4.93;;;4.60;99.90;;;;;;5011819;28;20394;-44
2023/11/09 05:13:40;;;;;;;7.20;5.13;;;4.70;99.90;;;;;;5012349;28;20541;-40
2023/11/09 05:16:07;;;;;;;8.88;5.13;;;4.70;99.90;;;;;;5011393;28;20231;-42
2023/11/09 05:18:34;;;;;;;8.00;5.30;;;4.70;99.90;;;;;;5012181;28;20041;-46
2023/11/09 05:21:02;;;;;;;9.20;4.88;;;4.70;99.90;;;;;;5008756;28;20050;-39
2023/11/09 05:23:30;;;;;;;9.15;4.50;;;4.70;99.90;;;;;;5009929;28;20050;-43
2023/11/09 05:25:56;;;;;;;9.40;5.00;;;4.70;99.90;;;;;;5010213;28;20054;-41
2023/11/09 05:28:23;;;;;;;9.30;4.53;;;4.70;99.90;;;;;;5012412;28;20323;-41
2023/11/09 05:30:50;;;;;;;8.77;4.60;;;4.70;99.90;;;;;;5016216;28;20138;-44
2023/11/09 05:33:18;;;;;;;6.53;4.40;;;4.70;99.90;;;;;;5014882;28;20042;-43
2023/11/09 05:35:46;;;;;;;9.48;4.80;;;4.70;99.90;;;;;;5016722;28;20097;-42
2023/11/09 05:38:13;;;;;;;6.80;4.65;;;4.70;99.90;;;;;;5011075;28;20100;-42
2023/11/09 05:40:43;;;;;;;5.88;4.20;;;4.70;99.90;;;;;;5011086;28;20053;-42
2023/11/09 05:43:12;;;;;;;7.25;4.93;;;4.60;99.90;;;;;;5008999;28;20049;-41
2023/11/09 05:45:39;;;;;;;7.55;5.00;;;4.60;99.90;;;;;;5005662;28;20270;-42
2023/11/09 05:48:06;;;;;;;8.15;4.47;;;4.60;99.90;;;;;;5009741;28;20628;-42
2023/11/09 05:50:33;;;;;;;7.95;4.57;;;4.60;99.90;;;;;;5011602;28;20148;-40
2023/11/09 05:53:01;;;;;;;7.68;5.20;;;4.60;99.90;;;;;;5014508;28;20042;-40
2023/11/09 05:55:31;;;;;;;7.57;4.63;;;4.60;99.90;;;;;;5019796;28;20049;-44
2023/11/09 05:57:58;;;;;;;9.32;4.80;;;4.50;99.90;;;;;;5014924;28;20046;-42
2023/11/09 06:00:27;;;;;;;9.45;4.68;;;4.50;99.90;;;;;;5010941;28;20113;-44
2023/11/09 06:02:54;;;;;;;6.60;4.75;;;4.50;99.90;;;;;;5010666;28;20416;-44
2023/11/09 06:05:24;;;;;;;6.90;4.95;;;4.50;99.90;;;;;;5011301;28;20522;-44
2023/11/09 06:07:56;;;;;;;10.15;4.80;;;4.50;99.90;;;;;;5011147;28;20046;-43
2023/11/09 06:10:25;;;;;;;9.63;5.47;;;4.60;99.90;;;;;;5006749;28;20081;-44
2023/11/09 06:12:52;;;;;;;9.80;4.70;;;4.60;99.90;;;;;;5011497;28;20048;-42
2023/11/09 06:15:20;;;;;;;9.10;5.25;;;4.60;99.90;;;;;;5011184;28;20272;-43
2023/11/09 06:17:47;;;;;;;7.35;4.82;;;4.60;99.90;;;;;;5012457;28;20045;-43
2023/11/09 06:20:15;;;;;;;10.20;5.10;;;4.60;99.90;;;;;;5011629;28;20541;-42
2023/11/09 06:22:43;;;;;;;7.45;4.95;;;4.60;99.90;;;;;;5011253;28;20045;-42
2023/11/09 06:25:11;;;;;;;9.27;5.30;;;4.60;99.90;;;;;;5014824;28;20056;-41
2023/11/09 06:27:39;;;;;;;7.97;4.70;;;4.60;99.90;;;;;;5013855;28;20136;-40
2023/11/09 06:30:07;;;;;;;7.82;5.10;;;4.60;99.90;;;;;;5010111;28;20045;-42
2023/11/09 06:32:34;;;;;;;7.07;4.68;;;4.60;99.90;;;;;;5009650;28;20093;-42
2023/11/09 06:35:02;;;;;;;10.13;4.70;;;4.60;99.90;;;;;;5008664;28;20048;-43
2023/11/09 06:37:33;;;;;;;10.18;6.13;;;4.60;99.90;;;;;;5016678;28;20057;-40
2023/11/09 06:40:10;;;;;;;11.88;6.28;;;4.60;99.90;;;;;;5015904;28;20045;-43
2023/11/09 06:42:39;;;;;;;12.90;7.00;;;4.70;99.90;;;;;;5015198;28;20158;-41
2023/11/09 06:45:09;;;;;;;14.20;6.55;;;4.80;99.90;;;;;;5018579;28;20176;-42
2023/11/09 06:47:38;;;;;;;10.90;5.68;;;4.80;99.90;;;;;;5018270;28;20194;-40
2023/11/09 06:50:11;;;;;;;11.23;5.20;;;4.90;99.90;;;;;;5018740;28;20511;-42
2023/11/09 06:52:43;;;;;;;11.68;5.75;;;5.00;99.90;;;;;;5011196;28;20045;-43
2023/11/09 06:55:11;;;;;;;7.30;4.60;;;4.90;99.90;;;;;;5010506;28;20049;-40
2023/11/09 06:57:41;;;;;;;10.52;6.20;;;5.00;99.90;;;;;;5030235;28;20048;-44
2023/11/09 07:00:10;;;;;;;8.77;5.20;;;5.10;99.90;;;;;;5014486;28;20053;-45
2023/11/09 07:02:38;;;;;;;14.32;5.10;;;5.10;99.90;;;;;;5009808;28;20403;-45
2023/11/09 07:05:07;;;;;;;8.35;5.07;;;5.10;99.90;;;;;;5009944;28;20531;-44
2023/11/09 07:07:35;;;;;;;15.77;6.70;;;5.20;99.90;;;;;;5008851;28;20137;-44
2023/11/09 07:10:04;;;;;;;10.85;5.22;;;5.20;99.90;;;;;;5024644;28;20054;-42
2023/11/09 07:12:32;;;;;;;8.75;5.13;;;5.20;99.90;;;;;;5010269;28;20044;-42
2023/11/09 07:14:59;;;;;;;7.43;4.68;;;5.30;99.90;;;;;;5007960;28;20037;-42
2023/11/09 07:17:26;;;;;;;9.85;4.43;;;5.30;99.90;;;;;;5009183;28;20108;-42
2023/11/09 07:19:53;;;;;;;8.85;4.68;;;5.40;99.90;;;;;;5007237;28;20064;-44
2023/11/09 07:22:20;;;;;;;7.30;4.78;;;5.50;99.90;;;;;;5012453;28;20053;-41
2023/11/09 07:24:56;;;;;;;8.07;4.60;;;5.60;99.90;;;;;;5011027;28;20514;-42
2023/11/09 07:27:38;;;;;;;6.65;4.40;;;5.60;99.90;;;;;;5012867;28;20042;-45
2023/11/09 07:30:06;;;;;;;11.35;6.43;;;5.70;99.90;;;;;;5014153;28;20362;-43
2023/11/09 07:32:34;;;;;;;7.78;4.90;;;5.70;99.90;;;;;;5024435;28;20046;-43
2023/11/09 07:35:02;;;;;;;6.88;4.65;;;5.70;99.90;;;;;;5023597;28;20065;-43
2023/11/09 07:37:29;;;;;;;7.80;5.03;;;5.80;99.90;;;;;;5022132;28;20049;-40
2023/11/09 07:39:57;;;;;;;8.85;5.13;;;5.90;99.90;;;;;;5020140;28;20058;-42
2023/11/09 07:42:25;;;;;;;8.27;5.38;;;5.90;99.90;;;;;;5018384;28;20060;-42
2023/11/09 07:44:52;;;;;;;8.40;5.20;;;6.00;99.90;;;;;;5019393;28;20149;-40
2023/11/09 07:47:19;;;;;;;7.90;5.10;;;6.10;99.90;;;;;;5019406;28;20046;-41
2023/11/09 07:49:46;;;;;;;9.63;5.75;;;6.10;99.90;;;;;;5018633;28;20045;-41
2023/11/09 07:52:14;;;;;;;11.48;5.57;;;6.10;99.90;;;;;;5015742;28;20050;-44
2023/11/09 07:54:44;;;;;;;13.07;5.63;;;6.20;99.90;;;;;;5015138;28;20590;-42
2023/11/09 07:57:11;;;;;;;7.65;5.50;;;6.30;99.90;;;;;;5016245;28;20069;-43
2023/11/09 07:59:38;;;;;;;8.73;5.07;;;6.40;99.90;;;;;;5019242;28;20046;-42
2023/11/09 08:02:09;;;;;;;6.35;4.20;;;6.50;99.90;;;;;;5021250;28;20069;-42
2023/11/09 08:04:37;;;;;;;7.18;4.55;;;6.50;99.90;;;;;;5017023;28;20042;-42
2023/11/09 08:07:04;;;;;;;13.80;4.57;;;6.60;99.90;;;;;;5020456;28;20094;-42
2023/11/09 08:09:32;;;;;;;7.93;5.10;;;6.70;99.90;;;;;;5019252;28;20041;-41
2023/11/09 08:12:00;;;;;;;8.57;4.90;;;6.70;99.90;;;;;;5015910;28;20046;-43
2023/11/09 08:14:27;;;;;;;9.98;4.70;;;6.80;99.90;;;;;;5013851;28;20037;-40
2023/11/09 08:16:55;;;;;;;16.77;7.85;;;6.80;99.90;;;;;;5013474;28;20446;-41
2023/11/09 08:19:24;;;;;;;7.07;4.82;;;6.90;99.90;;;;;;5012521;28;20068;-43
2023/11/09 08:21:51;;;;;;;9.43;5.20;;;7.00;99.90;;;;;;5013808;28;20107;-41
2023/11/09 08:24:18;;;;;;;7.20;4.53;;;7.10;99.90;;;;;;5008614;28;20080;-42
2023/11/09 08:26:46;;;;;;;6.43;4.43;;;7.20;99.90;;;;;;5013558;28;20077;-40
2023/11/09 08:29:13;;;;;;;6.57;4.15;;;7.40;99.90;;;;;;5013560;28;20069;-41
2023/11/09 08:31:41;;;;;;;5.80;4.65;;;7.60;99.90;;;;;;5016596;28;20042;-43
2023/11/09 08:34:08;;;;;;;7.43;4.72;;;7.70;99.90;;;;;;5014491;28;20151;-42
2023/11/09 08:36:35;;;;;;;6.70;4.57;;;7.90;99.90;;;;;;5011998;28;20048;-39
2023/11/09 08:39:02;;;;;;;7.05;5.00;;;8.00;99.90;;;;;;5017584;28;20046;-41
2023/11/09 08:41:30;;;;;;;6.78;5.28;;;8.10;99.90;;;;;;5019362;28;20049;-42
2023/11/09 08:43:57;;;;;;;9.07;4.80;;;8.10;99.90;;;;;;5011780;28;20069;-43
2023/11/09 08:46:24;;;;;;;6.78;4.95;;;8.00;99.90;;;;;;5020189;28;20299;-39
2023/11/09 08:48:52;;;;;;;10.10;4.38;;;8.00;99.90;;;;;;5017915;28;20053;-39
2023/11/09 08:51:20;;;;;;;13.20;8.25;;;8.00;99.90;;;;;;5008249;28;20049;-39
2023/11/09 08:53:47;;;;;;;8.70;5.85;;;8.10;99.90;;;;;;5009802;28;20054;-42
2023/11/09 08:56:21;;;;;;;6.93;5.18;;;8.10;99.90;;;;;;5013083;28;20046;-43
2023/11/09 08:58:48;;;;;;;14.05;5.18;;;8.10;99.90;;;;;;5011787;28;20442;-41
2023/11/09 09:01:18;;;;;;;8.23;4.55;;;8.20;99.90;;;;;;5010141;28;20057;-44
2023/11/09 09:03:50;;;;;;;7.30;5.00;;;8.20;99.90;;;;;;5010967;28;20048;-42
2023/11/09 09:06:18;;;;;;;7.15;4.22;;;8.30;99.90;;;;;;5003514;28;20053;-44
2023/11/09 09:08:46;;;;;;;6.47;4.43;;;8.40;99.90;;;;;;5008458;28;20040;-40
2023/11/09 09:11:14;;;;;;;8.45;4.60;;;8.60;99.90;;;;;;5010977;28;20449;-44
2023/11/09 09:13:42;;;;;;;7.45;5.20;;;8.60;99.90;;;;;;5008684;28;20430;-43
2023/11/09 09:16:09;;;;;;;7.20;4.40;;;8.60;99.90;;;;;;5011905;28;20065;-42
2023/11/09 09:18:37;;;;;;;6.05;4.68;;;8.80;99.90;;;;;;5012049;28;20113;-40
2023/11/09 09:21:08;;;;;;;6.32;4.93;;;8.70;99.90;;;;;;5010031;28;20064;-40
2023/11/09 09:23:37;;;;;;;8.55;4.90;;;8.80;99.90;;;;;;5011728;28;20114;-42
2023/11/09 09:26:07;;;;;;;8.13;4.78;;;8.70;99.90;;;;;;5027431;28;20046;-41
2023/11/09 09:28:47;;;;;;;7.80;5.20;;;8.70;99.90;;;;;;5034232;28;20041;-41
2023/11/09 09:31:18;;;;;;;5.38;4.60;;;8.80;99.90;;;;;;5019463;28;20391;-40
2023/11/09 09:34:10;;;;;;;9.50;4.88;;;8.80;99.90;;;;;;5013514;28;20503;-42
2023/11/09 09:36:37;;;;;;;7.90;5.20;;;8.90;99.90;;;;;;5012226;28;20044;-42
2023/11/09 09:39:06;;;;;;;6.70;4.93;;;9.00;99.90;;;;;;5010777;28;20068;-42
2023/11/09 09:41:50;;;;;;;8.38;5.35;;;9.10;99.90;;;;;;5012336;28;20129;-40
2023/11/09 09:44:18;;;;;;;7.97;4.65;;;9.40;99.90;;;;;;5019555;28;20109;-43
2023/11/09 09:46:49;;;;;;;5.88;4.43;;;9.40;99.90;;;;;;5020893;28;20041;-43
2023/11/09 09:49:18;;;;;;;8.60;4.60;;;9.60;99.90;;;;;;5020145;28;20044;-44
2023/11/09 09:51:48;;;;;;;6.85;5.13;;;9.80;99.90;;;;;;5019600;28;20046;-42
2023/11/09 09:54:18;;;;;;;7.32;4.60;;;9.90;99.90;;;;;;5019962;28;20046;-41
2023/11/09 09:56:47;;;;;;;12.55;8.05;;;9.80;99.90;;;;;;5021258;28;20116;-40
2023/11/09 09:59:14;;;;;;;6.95;4.97;;;9.80;99.90;;;;;;5021698;28;20038;-42
2023/11/09 10:01:49;;;;;;;9.30;5.40;;;9.90;99.90;;;;;;5022034;28;20053;-43
2023/11/09 10:04:17;;;;;;;8.65;5.93;;;9.90;99.90;;;;;;5031854;28;20046;-43
2023/11/09 10:06:45;;;;;;;9.00;5.53;;;9.80;99.90;;;;;;5018305;28;20050;-42
2023/11/09 10:09:14;;;;;;;7.70;5.55;;;9.80;99.90;;;;;;5011056;28;20498;-42
2023/11/09 10:11:42;;;;;;;8.68;5.00;;;9.80;99.90;;;;;;5013118;28;20048;-41
2023/11/09 10:14:11;;;;;;;13.43;5.50;;;9.90;99.90;;;;;;5018443;28;20038;-42
2023/11/09 10:16:38;;;;;;;9.85;5.32;;;10.00;99.90;;;;;;5016565;28;20034;-40
2023/11/09 10:19:06;;;;;;;7.97;5.03;;;10.20;99.90;;;;;;5014457;28;20104;-41
2023/11/09 10:21:34;;;;;;;7.32;5.47;;;10.30;99.90;;;;;;5012773;28;20561;-39
2023/11/09 10:24:02;;;;;;;14.20;9.00;;;10.40;99.90;;;;;;5012220;28;20057;-42
2023/11/09 10:26:44;;;;;;;6.28;4.82;;;10.50;99.90;;;;;;5014896;28;20060;-44
2023/11/09 10:29:19;;;;;;;9.35;5.05;;;10.40;99.90;;;;;;5012797;28;20042;-42
2023/11/09 10:31:47;;;;;;;6.68;4.90;;;10.40;99.90;;;;;;5012710;28;20093;-40
2023/11/09 10:34:15;;;;;;;7.72;4.78;;;10.40;99.90;;;;;;5017348;28;20398;-41
2023/11/09 10:36:46;;;;;;;10.65;5.40;;;10.50;99.90;;;;;;5013874;28;20038;-44
2023/11/09 10:39:22;;;;;;;10.27;5.25;;;10.50;99.90;;;;;;5014830;28;20084;-41
2023/11/09 10:41:54;;;;;;;10.93;5.97;;;10.60;99.90;;;;;;5007488;28;20050;-40
2023/11/09 10:44:28;;;;;;;7.20;5.40;;;10.70;99.90;;;;;;5006442;28;20042;-44
2023/11/09 10:46:59;;;;;;;7.32;4.97;;;10.80;99.90;;;;;;5010250;28;20053;-41
2023/11/09 10:49:36;;;;;;;8.07;5.18;;;10.60;99.90;;;;;;5012791;28;20052;-40
2023/11/09 10:52:07;;;;;;;7.95;5.28;;;10.60;99.90;;;;;;5015123;28;20515;-44
2023/11/09 10:54:37;;;;;;;7.05;5.00;;;10.60;99.90;;;;;;5011081;28;20042;-40
2023/11/09 10:57:09;;;;;;;7.30;5.50;;;10.60;99.90;;;;;;5010363;28;20073;-42
2023/11/09 10:59:40;;;;;;;8.98;5.40;;;10.70;99.90;;;;;;5010702;28;20049;-44
2023/11/09 11:02:19;;;;;;;7.07;4.57;;;10.70;99.90;;;;;;5010868;28;20048;-43
2023/11/09 11:04:50;;;;;;;7.10;4.95;;;10.70;99.90;;;;;;5011812;28;20462;-45
2023/11/09 11:07:25;;;;;;;8.68;5.32;;;10.50;99.90;;;;;;5004735;28;20076;-43
2023/11/09 11:09:56;;;;;;;7.32;5.10;;;10.50;99.90;;;;;;5014135;28;20054;-43
2023/11/09 11:12:23;;;;;;;8.88;4.68;;;10.30;99.90;;;;;;5016868;28;20077;-42
2023/11/09 11:14:52;;;;;;;10.70;5.70;;;10.20;99.90;;;;;;5012916;28;20061;-41
2023/11/09 11:17:49;;;;;;;7.20;5.25;;;10.30;99.90;;;;;;5010828;28;20069;-42
2023/11/09 11:21:07;;;;;;;7.43;5.68;;;10.20;99.90;;;;;;5005867;28;20101;-43
2023/11/09 11:24:04;;;;;;;9.23;5.57;;;10.20;99.90;;;;;;5005861;28;20038;-40
2023/11/09 11:26:48;;;;;;;11.10;5.85;;;10.30;99.90;;;;;;4998618;28;20041;-42
2023/11/09 11:29:31;;;;;;;8.88;6.05;;;10.40;99.90;;;;;;5000299;28;20050;-40
2023/11/09 11:31:59;;;;;;;10.88;6.07;;;10.50;99.90;;;;;;5005402;28;20057;-43
2023/11/09 11:34:55;;;;;;;14.00;6.15;;;10.50;99.90;;;;;;5008280;28;20041;-44
2023/11/09 11:37:26;;;;;;;10.75;6.40;;;10.40;99.90;;;;;;5005111;28;20057;-44
2023/11/09 11:39:54;;;;;;;9.88;5.47;;;10.40;99.90;;;;;;5009560;28;20156;-40
2023/11/09 11:42:23;;;;;;;13.43;5.80;;;10.40;99.90;;;;;;5003948;28;20125;-40
2023/11/09 11:44:52;;;;;;;8.23;5.50;;;10.40;99.90;;;;;;5008604;28;20381;-41
2023/11/09 11:47:29;;;;;;;7.35;5.28;;;10.40;99.90;;;;;;5004355;28;20136;-43
2023/11/09 11:50:09;;;;;;;12.50;7.32;;;10.40;99.90;;;;;;5008429;28;20096;-42
2023/11/09 11:52:37;;;;;;;8.00;5.03;;;10.40;99.90;;;;;;5009520;28;20050;-43
2023/11/09 11:55:10;;;;;;;7.55;5.43;;;10.30;99.90;;;;;;5009556;28;20355;-42
2023/11/09 11:58:04;;;;;;;8.93;4.80;;;10.40;99.90;;;;;;5010920;28;20481;-44
2023/11/09 12:00:40;;;;;;;7.65;4.78;;;10.40;99.90;;;;;;5011612;28;20159;-40
2023/11/09 12:03:08;;;;;;;7.45;4.63;;;10.30;99.90;;;;;;5024564;28;20057;-41
2023/11/09 12:05:40;;;;;;;5.47;4.38;;;10.40;99.90;;;;;;5012900;28;20050;-40
2023/11/09 12:08:12;;;;;;;8.50;4.68;;;10.40;99.90;;;;;;5018728;28;20522;-41
2023/11/09 12:10:40;;;;;;;7.18;5.13;;;10.40;99.90;;;;;;5010954;28;20045;-40
2023/11/09 12:13:09;;;;;;;11.20;5.13;;;10.50;99.90;;;;;;5010874;28;20901;-39
2023/11/09 12:15:37;;;;;;;6.93;5.10;;;10.50;99.90;;;;;;5013665;28;20041;-41
2023/11/09 12:18:06;;;;;;;7.60;4.88;;;10.60;99.90;;;;;;5014632;28;20041;-44
2023/11/09 12:20:36;;;;;;;8.25;5.10;;;10.60;99.90;;;;;;5014950;28;20068;-41
2023/11/09 12:23:07;;;;;;;8.30;5.00;;;10.60;99.90;;;;;;5009465;28;20149;-44
2023/11/09 12:25:53;;;;;;;6.75;4.82;;;10.70;99.90;;;;;;5009965;28;20484;-41
2023/11/09 12:28:24;;;;;;;8.63;5.20;;;10.80;99.90;;;;;;5006337;28;20049;-43
2023/11/09 12:30:51;;;;;;;5.68;4.35;;;10.90;99.90;;;;;;5011589;28;20092;-42
2023/11/09 12:33:20;;;;;;;6.25;4.38;;;11.00;99.90;;;;;;5024708;28;20070;-41
2023/11/09 12:36:04;;;;;;;5.70;4.43;;;11.00;99.90;;;;;;5008686;28;20074;-42
2023/11/09 12:38:34;;;;;;;5.15;4.15;;;11.10;99.90;;;;;;5011765;28;20041;-40
2023/11/09 12:41:02;;;;;;;6.47;3.90;;;11.20;99.90;;;;;;5011332;28;20551;-40
2023/11/09 12:43:35;;;;;;;5.95;3.80;;;11.30;99.90;;;;;;5013250;28;20030;-45
2023/11/09 12:46:08;;;;;;;5.20;3.72;;;11.40;99.90;;;;;;5017305;28;20052;-41
2023/11/09 12:48:38;;;;;;;6.20;4.10;;;11.40;99.90;;;;;;5016491;28;20113;-43
2023/11/09 12:51:06;;;;;;;6.10;4.30;;;11.50;99.90;;;;;;5019801;28;20125;-41
2023/11/09 12:53:35;;;;;;;4.25;3.47;;;11.60;99.90;;;;;;5019672;28;20056;-44
2023/11/09 12:56:02;;;;;;;4.70;3.90;;;11.60;99.90;;;;;;5011727;28;20130;-43
2023/11/09 12:58:34;;;;;;;4.55;2.95;;;11.60;99.90;;;;;;5010062;28;20034;-40
2023/11/09 13:01:03;;;;;;;7.65;3.67;;;11.60;99.90;;;;;;5010290;28;20494;-43
2023/11/09 13:03:31;;;;;;;10.32;3.38;;;11.50;99.90;;;;;;5011504;28;20473;-44
2023/11/09 13:06:06;;;;;;;7.90;3.50;;;11.50;99.90;;;;;;5009879;28;20046;-41
2023/11/09 13:08:35;;;;;;;6.70;3.50;;;11.40;99.90;;;;;;5012736;28;20030;-42
2023/11/09 13:11:06;;;;;;;5.03;3.53;;;11.50;99.90;;;;;;5014097;28;20255;-40
2023/11/09 13:13:35;;;;;;;4.03;3.40;;;11.60;99.90;;;;;;5014144;28;20578;-41
2023/11/09 13:16:12;;;;;;;5.30;3.63;;;11.50;99.90;;;;;;5014059;28;20137;-42